Time;durP1;ratioP1;P1;durP2;ratioP2;P2;SDS_P1;SDS_P2;PMS_P1;PMS_P2;Temp;Humidity;BMP_temperature;BMP_pressure;BME280_temperature;BME280_humidity;BME280_pressure;Samples;Min_cycle;Max_cycle;Signal;HPM_P1;HPM_P2
2022/04/04 00:01:38;;;;;;;12.07;5.20;;;;;;;1.01;61.05;100673.63;1488786;87;21454;-83
2022/04/04 00:04:04;;;;;;;13.10;6.20;;;;;;;0.99;60.56;100675.47;1488977;86;22287;-82
2022/04/04 00:06:33;;;;;;;9.67;5.70;;;;;;;0.98;60.91;100672.02;1493943;87;21418;-82
2022/04/04 00:08:58;;;;;;;15.37;6.00;;;;;;;0.99;60.84;100671.09;1481524;87;21354;-82
2022/04/04 00:11:24;;;;;;;11.97;7.10;;;;;;;1.01;60.78;100661.91;1469795;87;22513;-82
2022/04/04 00:13:50;;;;;;;12.87;5.70;;;;;;;1.03;60.90;100670.46;1492784;87;21367;-84
2022/04/04 00:16:17;;;;;;;10.57;6.70;;;;;;;1.02;60.61;100664.41;1487728;86;21374;-84
2022/04/04 00:18:43;;;;;;;13.97;6.53;;;;;;;1.05;61.20;100667.32;1487587;87;21570;-82
2022/04/04 00:21:11;;;;;;;11.60;5.67;;;;;;;0.98;62.40;100669.42;1485501;87;22565;-83
2022/04/04 00:23:36;;;;;;;13.23;6.93;;;;;;;0.99;61.68;100663.73;1499953;86;21419;-83
2022/04/04 00:26:05;;;;;;;14.60;7.10;;;;;;;0.98;62.79;100662.91;1496867;86;22635;-82
2022/04/04 00:28:31;;;;;;;13.30;8.27;;;;;;;1.00;62.39;100654.52;1476733;87;21376;-83
2022/04/04 00:30:57;;;;;;;12.00;7.30;;;;;;;1.01;62.88;100663.20;1481266;87;21661;-83
2022/04/04 00:33:23;;;;;;;13.97;7.73;;;;;;;0.99;62.79;100659.83;1488790;87;21573;-83
2022/04/04 00:35:49;;;;;;;17.60;7.43;;;;;;;0.98;62.91;100660.73;1481746;87;21621;-82
2022/04/04 00:38:16;;;;;;;14.83;7.10;;;;;;;0.96;61.68;100665.20;1486635;87;21488;-82
2022/04/04 00:40:43;;;;;;;14.47;8.17;;;;;;;0.92;61.29;100663.66;1489742;86;22518;-83
2022/04/04 00:43:09;;;;;;;8.87;6.10;;;;;;;0.94;61.87;100656.61;1490239;87;21425;-83
2022/04/04 00:45:35;;;;;;;13.03;9.10;;;;;;;0.95;61.81;100650.47;1487424;86;21608;-82
2022/04/04 00:48:01;;;;;;;10.60;6.70;;;;;;;0.93;61.79;100651.03;1485044;87;21667;-83
2022/04/04 00:50:28;;;;;;;14.50;7.57;;;;;;;0.93;61.71;100654.94;1484579;87;22629;-83
2022/04/04 00:52:54;;;;;;;10.27;7.03;;;;;;;0.93;61.53;100654.94;1456693;89;21689;-83
2022/04/04 00:55:20;;;;;;;14.53;7.17;;;;;;;0.96;62.15;100649.56;1460482;89;23868;-82
2022/04/04 00:57:47;;;;;;;13.63;7.23;;;;;;;0.99;61.55;100647.63;1467100;87;21456;-83
2022/04/04 01:00:15;;;;;;;12.00;7.90;;;;;;;1.00;61.92;100649.30;1473504;87;21607;-84
2022/04/04 01:02:41;;;;;;;11.60;6.67;;;;;;;1.01;61.73;100643.66;1479602;88;22609;-82
2022/04/04 01:05:09;;;;;;;11.43;6.37;;;;;;;1.01;62.09;100642.35;1486064;88;21611;-83
2022/04/04 01:07:38;;;;;;;11.97;6.67;;;;;;;1.00;62.81;100645.86;1489697;88;21586;-82
2022/04/04 01:10:06;;;;;;;14.17;6.87;;;;;;;0.97;62.96;100644.72;1463062;88;21857;-81
2022/04/04 01:12:32;;;;;;;13.27;7.63;;;;;;;0.96;63.06;100646.96;1479093;88;22117;-81
2022/04/04 01:14:59;;;;;;;12.83;7.60;;;;;;;0.96;62.83;100652.17;1474350;87;21590;-81
2022/04/04 01:17:25;;;;;;;12.90;7.20;;;;;;;0.93;63.87;100649.73;1481835;88;21398;-80
2022/04/04 01:19:52;;;;;;;11.87;7.47;;;;;;;0.92;63.13;100655.84;1480278;88;22446;-81
2022/04/04 01:22:18;;;;;;;12.37;7.30;;;;;;;0.95;62.99;100654.37;1482763;88;21632;-82
2022/04/04 01:24:45;;;;;;;20.17;8.73;;;;;;;0.99;63.07;100655.92;1477184;88;21585;-82
2022/04/04 01:27:12;;;;;;;10.90;7.07;;;;;;;1.00;63.56;100652.38;1489397;87;21607;-81
2022/04/04 01:29:39;;;;;;;12.03;8.10;;;;;;;1.00;64.46;100653.22;1484367;88;21847;-83
2022/04/04 01:32:07;;;;;;;12.20;7.13;;;;;;;0.98;63.73;100654.22;1478148;88;21600;-83
2022/04/04 01:34:34;;;;;;;12.90;6.90;;;;;;;0.96;63.27;100657.39;1477385;87;21556;-83
2022/04/04 01:37:00;;;;;;;12.37;6.83;;;;;;;0.97;63.52;100661.66;1472143;87;21672;-83
2022/04/04 01:39:26;;;;;;;16.40;7.97;;;;;;;0.96;63.66;100659.99;1481388;88;21610;-83
2022/04/04 01:41:53;;;;;;;12.27;7.33;;;;;;;0.97;63.99;100659.05;1483985;88;21505;-82
2022/04/04 01:44:19;;;;;;;13.70;6.67;;;;;;;0.97;63.63;100662.97;1477468;88;22673;-82
2022/04/04 01:46:45;;;;;;;13.63;6.73;;;;;;;0.96;62.86;100661.30;1480763;88;21663;-82
2022/04/04 01:49:11;;;;;;;18.90;7.57;;;;;;;0.97;62.25;100662.97;1479560;88;21514;-83
2022/04/04 01:51:39;;;;;;;11.10;7.17;;;;;;;0.99;62.40;100660.66;1482183;87;21534;-83
2022/04/04 01:54:06;;;;;;;19.90;7.30;;;;;;;1.00;62.19;100663.64;1483960;87;21621;-84
2022/04/04 01:56:34;;;;;;;13.30;7.90;;;;;;;1.00;62.03;100659.73;1479776;87;21543;-83
2022/04/04 01:59:00;;;;;;;14.03;8.70;;;;;;;1.01;62.16;100655.39;1492265;87;22458;-83
2022/04/04 02:01:27;;;;;;;9.77;7.00;;;;;;;1.04;62.60;100657.83;1470313;87;21661;-83
2022/04/04 02:03:56;;;;;;;12.20;7.33;;;;;;;1.05;63.57;100656.89;1478001;87;21740;-83
2022/04/04 02:06:23;;;;;;;12.03;7.10;;;;;;;1.06;63.93;100654.19;1489449;87;21570;-84
2022/04/04 02:08:50;;;;;;;10.87;6.80;;;;;;;1.06;64.16;100657.27;1491053;87;22467;-84
2022/04/04 02:11:19;;;;;;;13.03;7.10;;;;;;;1.04;63.20;100661.27;1474913;87;21664;-83
2022/04/04 02:13:47;;;;;;;13.30;7.33;;;;;;;1.01;63.70;100656.69;1486748;87;21535;-83
2022/04/04 02:16:13;;;;;;;10.43;6.67;;;;;;;1.01;62.88;100669.72;1487458;87;21613;-83
2022/04/04 02:18:40;;;;;;;13.53;7.63;;;;;;;1.03;62.79;100669.16;1482979;87;21562;-83
2022/04/04 02:21:07;;;;;;;15.17;7.17;;;;;;;1.04;63.71;100661.73;1490450;87;21613;-83
2022/04/04 02:23:34;;;;;;;13.10;8.07;;;;;;;1.07;63.53;100664.18;1488927;87;21448;-83
2022/04/04 02:26:00;;;;;;;11.37;6.90;;;;;;;1.09;63.85;100659.70;1484219;87;21346;-82
2022/04/04 02:28:28;;;;;;;14.63;7.63;;;;;;;1.12;64.23;100658.23;1489914;87;22551;-83
2022/04/04 02:30:56;;;;;;;14.20;7.20;;;;;;;1.13;64.93;100659.94;1487532;87;21727;-82
2022/04/04 02:33:23;;;;;;;14.07;6.57;;;;;;;1.13;65.09;100656.03;1484183;87;21664;-83
2022/04/04 02:35:51;;;;;;;14.10;8.87;;;;;;;1.11;66.54;100653.95;1483217;87;21434;-81
2022/04/04 02:38:21;;;;;;;17.50;9.47;;;;;;;1.05;64.92;100656.89;1486596;87;22489;-81
2022/04/04 02:40:48;;;;;;;23.35;10.68;;;;;;;1.01;65.17;100654.08;1483629;87;21592;-82
2022/04/04 02:43:14;;;;;;;17.80;9.20;;;;;;;1.02;64.33;100662.27;1495704;87;21457;-81
2022/04/04 02:45:40;;;;;;;15.07;9.20;;;;;;;1.02;65.03;100654.45;1488962;87;21694;-82
2022/04/04 02:48:07;;;;;;;22.20;10.40;;;;;;;1.03;65.36;100654.36;1487853;87;21554;-83
2022/04/04 02:50:34;;;;;;;20.20;10.53;;;;;;;1.05;65.46;100653.82;1484952;87;22650;-81
2022/04/04 02:53:01;;;;;;;19.27;11.03;;;;;;;1.03;65.56;100665.25;1479115;88;21696;-81
2022/04/04 02:58:14;;;;;;;17.37;9.33;;;;;;;0.99;65.07;100653.31;1479096;88;21803;-83
2022/04/04 03:00:41;;;;;;;17.83;10.13;;;;;;;0.99;65.88;100661.97;1483883;88;21461;-83
2022/04/04 03:03:09;;;;;;;15.60;8.77;;;;;;;0.96;66.76;100656.08;1479177;88;21587;-82
2022/04/04 03:05:36;;;;;;;16.53;9.53;;;;;;;0.93;66.83;100659.69;1482233;88;21651;-84
2022/04/04 03:08:02;;;;;;;20.03;9.73;;;;;;;0.92;66.66;100663.20;1483308;88;21423;-84
2022/04/04 03:10:28;;;;;;;15.13;9.47;;;;;;;0.90;66.92;100668.97;1463814;88;21579;-84
2022/04/04 03:12:55;;;;;;;15.53;8.53;;;;;;;0.86;66.58;100664.39;1473552;88;23496;-83
2022/04/04 03:15:24;;;;;;;22.73;10.60;;;;;;;0.84;66.76;100666.69;1470151;88;21541;-83
2022/04/04 03:17:53;;;;;;;21.03;9.00;;;;;;;0.82;66.32;100668.05;1476708;88;21577;-83
2022/04/04 03:20:22;;;;;;;14.03;8.33;;;;;;;0.82;66.76;100661.54;1477281;87;21721;-83
2022/04/04 03:22:53;;;;;;;18.80;9.77;;;;;;;0.83;68.11;100671.03;1481035;87;21464;-84
2022/04/04 03:25:19;;;;;;;15.23;10.05;;;;;;;0.85;68.61;100668.36;1473869;88;21758;-83
2022/04/04 03:27:47;;;;;;;12.30;7.53;;;;;;;0.85;68.65;100670.50;1474889;87;21436;-83
2022/04/04 03:30:18;;;;;;;13.53;7.77;;;;;;;0.87;69.29;100667.83;1479016;87;21630;-83
2022/04/04 03:32:49;;;;;;;;;;;;;;;0.89;69.20;100673.34;1483901;87;21695;-83
2022/04/04 03:35:17;;;;;;;13.95;9.05;;;;;;;0.89;71.59;100673.34;1475039;88;20370;-83
2022/04/04 03:37:46;;;;;;;16.13;8.87;;;;;;;0.91;70.35;100671.95;1480815;87;21385;-81
2022/04/04 03:40:14;;;;;;;12.73;8.43;;;;;;;0.93;71.51;100675.79;1471617;87;21636;-83
2022/04/04 03:42:43;;;;;;;15.10;8.87;;;;;;;0.86;72.54;100674.81;1477995;88;21646;-83
2022/04/04 03:45:11;;;;;;;20.67;9.83;;;;;;;0.83;71.43;100678.02;1483006;88;21677;-83
2022/04/04 03:47:39;;;;;;;123.70;47.77;;;;;;;0.79;72.09;100683.02;1468931;87;21643;-83
2022/04/04 03:50:07;;;;;;;164.20;61.17;;;;;;;0.75;72.49;100677.13;1463477;89;22763;-83
2022/04/04 03:52:34;;;;;;;81.77;31.77;;;;;;;0.70;71.47;100683.02;1495027;87;22576;-84
2022/04/04 03:55:01;;;;;;;60.60;25.67;;;;;;;0.67;70.95;100683.19;1481641;87;21572;-82
2022/04/04 03:57:28;;;;;;;28.50;13.47;;;;;;;0.65;71.18;100679.80;1495193;87;21537;-84
2022/04/04 03:59:54;;;;;;;15.67;9.77;;;;;;;0.66;70.79;100680.17;1489097;87;21669;-84
2022/04/04 04:02:20;;;;;;;18.90;9.30;;;;;;;0.66;71.22;100674.97;1489256;87;21494;-84
2022/04/04 04:04:46;;;;;;;12.37;7.40;;;;;;;0.63;71.85;100673.39;1492568;87;21555;-83
2022/04/04 04:07:15;;;;;;;12.43;7.43;;;;;;;0.61;71.63;100676.98;1490109;87;21454;-83
2022/04/04 04:09:40;;;;;;;15.20;8.03;;;;;;;0.59;71.52;100676.22;1487790;87;21962;-84
2022/04/04 04:12:08;;;;;;;21.13;7.80;;;;;;;0.58;71.56;100673.23;1496258;87;21628;-84
2022/04/04 04:14:34;;;;;;;15.47;7.53;;;;;;;0.56;71.90;100668.55;1501233;86;21556;-84
2022/04/04 04:17:00;;;;;;;10.10;6.20;;;;;;;0.54;72.25;100677.73;1492950;86;21639;-83
2022/04/04 04:22:10;;;;;;;11.80;7.23;;;;;;;0.40;72.34;100675.84;1491897;86;21397;-84
2022/04/04 04:24:36;;;;;;;11.43;6.50;;;;;;;0.34;72.45;100673.52;1483568;87;22868;-84
2022/04/04 04:27:02;;;;;;;15.30;7.00;;;;;;;0.23;73.08;100678.41;1489503;87;21448;-84
2022/04/04 04:29:28;;;;;;;10.90;7.07;;;;;;;0.24;72.23;100671.01;1489377;87;21315;-84
2022/04/04 04:31:54;;;;;;;14.97;7.23;;;;;;;0.28;72.33;100676.44;1480952;87;21823;-84
2022/04/04 04:34:20;;;;;;;15.17;7.93;;;;;;;0.33;72.27;100671.84;1490252;87;21404;-84
2022/04/04 04:36:46;;;;;;;14.33;8.27;;;;;;;0.40;71.30;100674.55;1497742;87;21617;-83
2022/04/04 04:39:12;;;;;;;15.70;8.77;;;;;;;0.48;71.24;100677.21;1498821;86;21337;-82
2022/04/04 04:41:38;;;;;;;13.43;8.23;;;;;;;0.55;71.62;100687.72;1478263;87;21531;-82
2022/04/04 04:44:05;;;;;;;16.63;7.87;;;;;;;0.58;72.45;100685.80;1487122;87;21593;-83
2022/04/04 04:46:33;;;;;;;22.33;10.47;;;;;;;0.58;71.37;100683.66;1482614;87;21433;-81
2022/04/04 04:49:00;;;;;;;22.40;10.27;;;;;;;0.58;71.14;100688.86;1464449;87;21572;-81
2022/04/04 04:51:26;;;;;;;17.67;10.60;;;;;;;0.63;71.55;100682.94;1495216;87;21724;-82
2022/04/04 04:53:53;;;;;;;15.63;9.77;;;;;;;0.69;70.79;100683.92;1453356;88;21515;-82
2022/04/04 04:56:19;;;;;;;17.13;10.77;;;;;;;0.78;70.57;100680.87;1486997;87;21683;-82
2022/04/04 04:58:45;;;;;;;19.20;9.67;;;;;;;0.86;70.20;100677.41;1478172;87;21498;-81
2022/04/04 05:01:11;;;;;;;20.30;10.90;;;;;;;0.93;70.16;100684.91;1490013;87;21695;-83
2022/04/04 05:03:37;;;;;;;21.13;10.93;;;;;;;0.98;69.83;100681.58;1485166;87;21747;-81
2022/04/04 05:06:03;;;;;;;18.23;10.60;;;;;;;1.04;68.86;100682.59;1497420;86;21570;-81
2022/04/04 05:08:34;;;;;;;19.40;10.73;;;;;;;1.11;67.92;100687.84;1492412;87;21584;-81
2022/04/04 05:10:59;;;;;;;22.13;10.83;;;;;;;1.18;67.78;100685.31;1494745;87;22496;-82
2022/04/04 05:13:26;;;;;;;20.07;11.27;;;;;;;1.22;67.15;100686.82;1463844;88;21771;-83
2022/04/04 05:15:58;;;;;;;29.93;10.03;;;;;;;1.26;66.71;100690.09;1490272;87;22589;-82
2022/04/04 05:18:21;;;;;;;18.23;11.00;;;;;;;1.28;66.33;100692.17;1497273;87;21686;-82
2022/04/04 05:20:48;;;;;;;19.10;10.77;;;;;;;1.29;66.11;100691.23;1492855;87;21636;-82
2022/04/04 05:23:14;;;;;;;15.80;9.23;;;;;;;1.35;66.50;100686.56;1491938;87;22542;-82
2022/04/04 05:25:40;;;;;;;18.70;10.77;;;;;;;1.40;66.40;100693.28;1487119;87;21703;-82
2022/04/04 05:28:07;;;;;;;21.53;10.87;;;;;;;1.42;64.67;100691.44;1464920;86;21412;-82
2022/04/04 05:30:34;;;;;;;18.83;11.50;;;;;;;1.42;63.96;100692.75;1497681;87;21594;-81
2022/04/04 05:33:01;;;;;;;24.40;12.90;;;;;;;1.47;64.27;100701.17;1494412;87;21623;-81
2022/04/04 05:35:28;;;;;;;20.47;12.77;;;;;;;1.50;64.68;100704.92;1493139;87;21614;-80
2022/04/04 05:37:55;;;;;;;22.30;13.27;;;;;;;1.49;64.79;100713.64;1482170;87;21518;-81
2022/04/04 05:40:23;;;;;;;28.87;16.00;;;;;;;1.46;63.00;100716.42;1488898;87;21567;-81
2022/04/04 05:42:49;;;;;;;32.23;16.40;;;;;;;1.50;63.71;100720.57;1493277;87;21474;-81
2022/04/04 05:45:15;;;;;;;29.70;15.90;;;;;;;1.54;63.48;100716.86;1488366;87;21638;-81
2022/04/04 05:47:45;;;;;;;32.73;17.27;;;;;;;1.61;63.74;100719.50;1489755;87;22460;-81
2022/04/04 05:50:09;;;;;;;25.83;14.90;;;;;;;1.67;64.07;100719.63;1475660;87;21664;-82
2022/04/04 05:52:36;;;;;;;30.30;15.47;;;;;;;1.74;63.92;100714.00;1480422;87;22646;-82
2022/04/04 05:55:06;;;;;;;28.20;15.60;;;;;;;1.83;63.69;100711.81;1469186;88;21498;-81
2022/04/04 05:57:38;;;;;;;43.08;15.95;;;;;;;1.94;63.35;100706.84;1479657;87;21508;-81
2022/04/04 06:00:08;;;;;;;;;;;;;;;2.02;62.07;100705.95;1470734;88;21514;-82
2022/04/04 06:02:36;;;;;;;28.10;13.13;;;;;;;2.08;61.15;100708.22;1478314;88;20305;-81
2022/04/04 06:05:04;;;;;;;22.17;13.03;;;;;;;2.18;61.92;100718.51;1478876;88;22077;-81
2022/04/04 06:07:30;;;;;;;16.37;9.33;;;;;;;2.25;61.15;100719.02;1481559;88;21540;-82
2022/04/04 06:09:59;;;;;;;14.60;8.20;;;;;;;2.28;59.56;100716.70;1466487;88;23510;-80
2022/04/04 06:12:25;;;;;;;17.40;10.07;;;;;;;2.26;59.52;100722.00;1477546;88;22394;-81
2022/04/04 06:14:51;;;;;;;13.83;7.90;;;;;;;2.31;59.79;100721.75;1490150;88;21666;-89
2022/04/04 06:17:17;;;;;;;20.57;9.30;;;;;;;2.24;56.34;100731.25;1457343;88;21507;-89
2022/04/04 06:19:46;;;;;;;15.93;8.53;;;;;;;2.28;58.72;100728.45;1466607;88;21660;-89
2022/04/04 06:22:12;;;;;;;16.27;8.37;;;;;;;2.20;55.36;100731.02;1476574;88;22503;-89
2022/04/04 06:24:38;;;;;;;13.50;7.60;;;;;;;2.22;56.27;100730.48;1480865;87;21704;-89
2022/04/04 06:27:05;;;;;;;13.87;8.30;;;;;;;2.21;55.33;100732.70;1466419;88;21618;-89
2022/04/04 06:29:31;;;;;;;12.70;6.70;;;;;;;2.20;55.69;100744.55;1472153;88;21780;-89
2022/04/04 06:31:58;;;;;;;12.67;7.30;;;;;;;2.21;53.48;100744.45;1483123;88;22805;-88
2022/04/04 06:34:25;;;;;;;13.27;7.67;;;;;;;2.28;55.46;100744.97;1487664;88;21397;-89
2022/04/04 06:36:52;;;;;;;15.13;8.17;;;;;;;2.41;56.60;100746.41;1476697;88;21644;-91
2022/04/04 06:39:18;;;;;;;13.17;7.40;;;;;;;2.56;57.29;100733.78;1480711;88;21738;-89
2022/04/04 06:41:45;;;;;;;15.87;9.43;;;;;;;2.67;56.77;100737.89;1479004;87;21790;-89
2022/04/04 06:44:12;;;;;;;12.07;7.03;;;;;;;2.78;57.15;100737.27;1464227;88;21537;-88
2022/04/04 06:46:38;;;;;;;12.33;7.40;;;;;;;2.71;52.71;100739.89;1475383;88;21545;-89
2022/04/04 06:49:06;;;;;;;15.50;8.33;;;;;;;2.77;53.92;100741.30;1476282;88;22485;-89
2022/04/04 06:51:33;;;;;;;14.20;7.70;;;;;;;2.68;50.29;100738.30;1474305;87;21767;-88
2022/04/04 06:54:01;;;;;;;17.57;7.60;;;;;;;2.77;53.74;100734.77;1476420;88;21596;-89
2022/04/04 06:56:27;;;;;;;18.10;8.87;;;;;;;2.77;53.74;100734.77;1480376;88;21792;-89
2022/04/04 06:58:53;;;;;;;23.00;12.47;;;;;;;2.90;54.24;100737.02;1471558;88;21710;-89
2022/04/04 07:01:20;;;;;;;21.70;11.53;;;;;;;3.01;54.09;100733.77;1480622;88;21605;-89
2022/04/04 07:03:46;;;;;;;23.87;14.60;;;;;;;3.05;52.36;100745.28;1483927;87;22868;-89
2022/04/04 07:06:12;;;;;;;23.47;15.37;;;;;;;3.18;54.21;100745.84;1477464;88;21826;-89
2022/04/04 07:08:38;;;;;;;28.87;17.40;;;;;;;3.31;53.82;100745.45;1475911;88;21404;-89
2022/04/04 07:11:05;;;;;;;51.20;24.23;;;;;;;3.28;52.02;100743.02;1473699;88;21857;-89
2022/04/04 07:13:32;;;;;;;24.37;13.97;;;;;;;3.28;52.02;100743.02;1465629;88;22069;-89
2022/04/04 07:15:58;;;;;;;29.57;14.57;;;;;;;3.33;52.33;100740.98;1475986;88;21826;-89
2022/04/04 07:18:26;;;;;;;24.00;12.57;;;;;;;3.44;49.55;100746.40;1471474;87;24019;-90
2022/04/04 07:20:52;;;;;;;23.13;10.27;;;;;;;3.47;49.46;100751.91;1459787;87;22103;-89
2022/04/04 07:23:18;;;;;;;16.73;9.87;;;;;;;3.47;49.46;100751.91;1461198;87;22973;-89
2022/04/04 07:25:44;;;;;;;14.03;7.27;;;;;;;3.49;49.31;100755.29;1460649;87;22240;-88
2022/04/04 07:28:10;;;;;;;11.20;6.47;;;;;;;3.50;50.55;100756.48;1456754;87;21399;-88
2022/04/04 07:30:36;;;;;;;8.20;5.27;;;;;;;3.54;48.07;100758.44;1458428;87;21444;-90
2022/04/04 07:33:04;;;;;;;9.40;5.80;;;;;;;3.65;50.05;100759.09;1462481;87;22121;-89
2022/04/04 07:35:39;;;;;;;8.87;4.93;;;;;;;3.81;46.63;100754.59;1455443;87;22232;-88
2022/04/04 07:38:09;;;;;;;8.17;4.80;;;;;;;3.88;48.40;100758.97;1454832;87;22095;-91
2022/04/04 07:40:35;;;;;;;8.93;5.30;;;;;;;3.92;44.98;100765.23;1464570;87;22246;-88
2022/04/04 07:43:01;;;;;;;7.93;4.50;;;;;;;4.02;47.70;100765.01;1462327;87;23068;-89
2022/04/04 07:45:31;;;;;;;6.17;4.00;;;;;;;4.14;47.90;100758.63;1455603;87;24147;-89
2022/04/04 07:47:58;;;;;;;6.27;3.73;;;;;;;4.25;46.36;100760.09;1466837;87;22068;-89
2022/04/04 07:50:24;;;;;;;6.70;3.03;;;;;;;4.29;44.19;100758.97;1462750;87;22982;-86
2022/04/04 07:52:51;;;;;;;6.00;3.60;;;;;;;4.31;44.64;100761.00;1454878;87;22618;-87
2022/04/04 07:55:19;;;;;;;7.87;3.50;;;;;;;4.40;44.59;100755.63;1443011;89;23003;-86
2022/04/04 07:57:46;;;;;;;4.80;3.57;;;;;;;4.36;40.54;100760.71;1443816;89;22419;-86
2022/04/04 08:00:14;;;;;;;4.10;3.20;;;;;;;4.25;38.95;100762.70;1427436;89;22077;-86
2022/04/04 08:02:41;;;;;;;6.10;3.10;;;;;;;4.18;37.97;100759.65;1444087;89;22183;-86
2022/04/04 08:05:08;;;;;;;7.93;3.40;;;;;;;4.26;42.58;100751.30;1426174;91;21437;-85
2022/04/04 08:07:35;;;;;;;7.33;3.43;;;;;;;4.48;42.44;100755.49;1445505;89;23078;-85
2022/04/04 08:10:03;;;;;;;4.83;3.33;;;;;;;4.63;40.03;100759.36;1436152;90;21392;-84
2022/04/04 08:12:29;;;;;;;4.20;2.53;;;;;;;4.83;42.52;100764.59;1444178;89;22338;-84
2022/04/04 08:14:56;;;;;;;4.40;2.40;;;;;;;4.83;39.13;100758.87;1442858;89;22470;-86
2022/04/04 08:17:23;;;;;;;14.03;4.87;;;;;;;4.89;40.53;100757.18;1440897;90;21466;-85
2022/04/04 08:19:50;;;;;;;5.93;3.23;;;;;;;4.95;37.84;100755.45;1517331;90;21318;-86
2022/04/04 08:22:17;;;;;;;7.43;4.47;;;;;;;5.03;40.23;100758.02;1392765;90;21369;-86
2022/04/04 08:24:44;;;;;;;5.13;3.07;;;;;;;4.95;38.23;100752.00;1430395;89;21421;-86
2022/04/04 08:27:11;;;;;;;5.73;4.07;;;;;;;4.91;38.83;100757.89;1457841;88;21435;-85
2022/04/04 08:29:37;;;;;;;8.70;4.43;;;;;;;5.09;39.90;100754.97;1440085;90;21487;-85
2022/04/04 08:32:06;;;;;;;11.30;4.80;;;;;;;5.34;41.46;100747.09;1437000;90;21554;-85
2022/04/04 08:34:32;;;;;;;10.40;4.60;;;;;;;5.48;41.04;100754.50;1441929;90;22367;-87
2022/04/04 08:36:58;;;;;;;5.50;3.77;;;;;;;5.49;39.33;100759.63;1448039;89;21422;-85
2022/04/04 08:39:24;;;;;;;5.37;3.80;;;;;;;5.48;40.00;100753.19;1426192;91;21430;-87
2022/04/04 08:41:52;;;;;;;6.37;4.30;;;;;;;5.60;39.53;100749.70;1442239;89;21548;-85
2022/04/04 08:44:19;;;;;;;5.73;3.63;;;;;;;5.56;38.82;100746.94;1456142;88;22343;-86
2022/04/04 08:46:47;;;;;;;9.20;4.30;;;;;;;5.62;39.03;100749.95;1446491;89;21367;-86
2022/04/04 08:49:13;;;;;;;6.27;3.60;;;;;;;5.60;38.73;100747.07;1446357;88;22170;-86
2022/04/04 08:51:42;;;;;;;10.17;4.10;;;;;;;5.66;40.12;100744.84;1445732;89;22476;-85
2022/04/04 08:54:09;;;;;;;11.47;4.60;;;;;;;5.52;39.41;100747.59;1459507;87;22878;-85
2022/04/04 08:56:34;;;;;;;7.67;4.53;;;;;;;5.55;40.88;100748.73;1451080;87;22433;-86
2022/04/04 08:59:01;;;;;;;7.77;5.10;;;;;;;5.78;40.66;100748.42;1434632;90;21428;-85
2022/04/04 09:01:28;;;;;;;6.23;4.27;;;;;;;6.01;40.06;100745.49;1422974;91;21421;-85
2022/04/04 09:04:09;;;;;;;5.70;3.87;;;;;;;6.07;38.63;100744.18;1435231;90;21436;-85
2022/04/04 09:06:53;;;;;;;6.42;4.22;;;;;;;6.07;37.41;100740.23;1437652;90;21562;-85
2022/04/04 09:09:45;;;;;;;8.93;5.40;;;;;;;6.02;37.29;100733.19;1435904;90;21369;-85
2022/04/04 09:12:15;;;;;;;9.95;5.08;;;;;;;6.17;38.63;100737.80;1434882;90;21458;-86
2022/04/04 09:14:56;;;;;;;10.30;5.53;;;;;;;6.41;40.28;100731.21;1441855;90;21377;-86
2022/04/04 09:17:29;;;;;;;8.80;6.43;;;;;;;6.40;38.85;100729.55;1439040;90;21414;-87
2022/04/04 09:19:57;;;;;;;10.23;5.97;;;;;;;6.38;39.18;100722.23;1439497;90;21452;-86
2022/04/04 09:22:24;;;;;;;9.77;5.53;;;;;;;6.31;38.47;100727.95;1440862;90;21361;-91
2022/04/04 09:24:56;;;;;;;8.50;6.63;;;;;;;6.21;39.25;100722.99;1441654;90;21303;-86
2022/04/04 09:27:27;;;;;;;10.13;6.63;;;;;;;6.18;39.49;100722.39;1437744;91;21310;-85
2022/04/04 09:29:57;;;;;;;10.53;5.72;;;;;;;6.07;38.71;100716.14;1444371;90;22904;-84
2022/04/04 09:32:39;;;;;;;8.57;5.30;;;;;;;6.07;40.04;100712.65;1432510;90;22263;-83
2022/04/04 09:35:13;;;;;;;11.23;4.97;;;;;;;5.94;39.32;100721.08;1430799;91;22166;-81
2022/04/04 09:37:43;;;;;;;9.80;6.33;;;;;;;5.81;40.39;100710.11;1439198;90;21449;-80
2022/04/04 09:40:24;;;;;;;7.43;5.23;;;;;;;5.86;41.08;100714.53;1429193;90;21347;-78
2022/04/04 09:42:55;;;;;;;9.67;6.03;;;;;;;5.99;42.33;100711.08;1433989;89;21592;-80
2022/04/04 09:45:25;;;;;;;15.33;6.17;;;;;;;6.28;42.62;100707.63;1433136;89;23755;-80
2022/04/04 09:48:08;;;;;;;9.63;5.90;;;;;;;6.49;41.96;100703.39;1438779;90;21480;-81
2022/04/04 09:50:51;;;;;;;8.03;5.20;;;;;;;6.68;39.49;100697.61;1416227;90;21428;-82
2022/04/04 09:53:22;;;;;;;12.00;6.13;;;;;;;6.91;39.43;100693.71;1433703;89;21474;-84
2022/04/04 09:55:57;;;;;;;11.73;5.42;;;;;;;6.95;40.08;100685.92;1435970;91;21370;-85
2022/04/04 09:58:26;;;;;;;11.80;5.77;;;;;;;6.85;39.36;100686.26;1432293;89;22517;-85
2022/04/04 10:00:54;;;;;;;8.10;4.87;;;;;;;6.59;39.47;100682.53;1431721;91;21503;-81
2022/04/04 10:03:22;;;;;;;8.80;5.33;;;;;;;6.52;40.63;100683.92;1432094;91;21428;-82
2022/04/04 10:05:58;;;;;;;8.33;5.20;;;;;;;6.36;40.49;100679.44;1433264;91;21436;-87
2022/04/04 10:08:26;;;;;;;11.70;5.93;;;;;;;6.30;40.86;100672.39;1423262;91;21444;-85
2022/04/04 10:10:54;;;;;;;10.83;6.63;;;;;;;6.17;40.15;100678.19;1432119;91;21421;-87
2022/04/04 10:13:23;;;;;;;14.80;5.90;;;;;;;6.05;40.36;100677.78;1439801;91;21407;-87
2022/04/04 10:15:51;;;;;;;8.37;5.67;;;;;;;5.77;40.47;100678.43;1439531;91;21444;-87
2022/04/04 10:18:18;;;;;;;7.67;4.77;;;;;;;5.65;41.61;100670.13;1433963;91;22272;-84
2022/04/04 10:20:52;;;;;;;9.07;6.23;;;;;;;5.75;42.57;100667.67;1434577;91;21496;-85
2022/04/04 10:23:15;;;;;;;16.85;5.83;;;;;;;5.63;41.40;100668.08;1441706;90;21436;-85
2022/04/04 10:25:41;;;;;;;7.83;5.23;;;;;;;5.58;41.36;100671.50;1431535;91;21378;-80
2022/04/04 10:28:07;;;;;;;11.97;6.77;;;;;;;5.61;41.23;100663.40;1436771;91;21430;-80
2022/04/04 10:30:40;;;;;;;10.77;5.90;;;;;;;5.57;41.64;100662.79;1440887;91;22327;-80
2022/04/04 10:33:25;;;;;;;10.00;5.10;;;;;;;5.60;42.15;100663.05;1432419;91;21296;-80
2022/04/04 10:36:10;;;;;;;9.30;5.80;;;;;;;5.62;42.03;100665.09;1424131;90;21539;-80
2022/04/04 10:38:47;;;;;;;7.30;4.10;;;;;;;5.62;42.46;100661.16;1437340;91;22309;-80
2022/04/04 10:41:18;;;;;;;6.23;4.40;;;;;;;5.42;42.85;100662.58;1439228;91;21408;-81
2022/04/04 10:43:48;;;;;;;7.40;5.17;;;;;;;5.23;43.06;100666.12;1435614;91;21340;-81
2022/04/04 10:46:17;;;;;;;7.45;4.20;;;;;;;5.23;43.39;100659.08;1438297;91;21384;-82
2022/04/04 10:49:02;;;;;;;9.53;5.97;;;;;;;5.23;43.12;100651.21;1430874;91;22227;-81
2022/04/04 10:51:33;;;;;;;7.53;5.23;;;;;;;5.20;43.69;100652.74;1418245;91;21385;-82
2022/04/04 10:54:05;;;;;;;5.80;3.95;;;;;;;5.33;44.11;100649.63;1430443;89;23356;-81
2022/04/04 10:56:34;;;;;;;11.30;5.83;;;;;;;5.38;43.10;100647.52;1425359;90;21407;-81
2022/04/04 10:59:24;;;;;;;8.77;5.50;;;;;;;5.33;42.03;100651.42;1432140;91;21436;-84
2022/04/04 11:01:56;;;;;;;6.87;5.17;;;;;;;5.18;42.08;100654.66;1433847;89;21598;-83
2022/04/04 11:04:26;;;;;;;8.30;5.30;;;;;;;5.20;43.33;100644.39;1440347;89;21540;-83
2022/04/04 11:10:06;;;;;;;9.17;5.50;;;;;;;5.32;43.05;100654.53;1436076;91;21497;-84
2022/04/04 11:12:29;;;;;;;8.57;6.07;;;;;;;5.38;42.50;100651.91;1421905;90;21563;-82
2022/04/04 11:15:06;;;;;;;7.20;4.87;;;;;;;5.51;42.33;100646.64;1442102;90;21413;-81
2022/04/04 11:17:35;;;;;;;8.50;5.53;;;;;;;5.45;42.15;100640.52;1440252;90;22388;-82
2022/04/04 11:20:21;;;;;;;11.63;6.50;;;;;;;5.58;41.38;100634.29;1444438;90;21546;-83
2022/04/04 11:22:52;;;;;;;8.80;5.57;;;;;;;5.68;41.66;100633.14;1431901;90;22485;-83
2022/04/04 11:25:19;;;;;;;7.80;4.43;;;;;;;5.96;40.95;100621.49;1441586;90;22417;-83
2022/04/04 11:27:48;;;;;;;17.27;6.93;;;;;;;6.26;40.88;100626.25;1442696;90;21325;-83
2022/04/04 11:30:17;;;;;;;6.93;5.20;;;;;;;6.37;40.21;100620.67;1423935;90;21452;-83
2022/04/04 11:32:47;;;;;;;8.23;5.70;;;;;;;6.49;40.63;100628.45;1442809;90;21472;-86
2022/04/04 11:35:21;;;;;;;6.20;4.70;;;;;;;6.49;37.56;100607.91;1441290;90;21435;-84
2022/04/04 11:37:50;;;;;;;8.13;4.90;;;;;;;6.44;39.13;100615.30;1430381;90;22542;-84
2022/04/04 11:40:23;;;;;;;6.93;4.50;;;;;;;6.40;37.74;100610.75;1439497;91;22331;-84